Time;durP1;ratioP1;P1;durP2;ratioP2;P2;SDS_P1;SDS_P2;PMS_P1;PMS_P2;Temp;Humidity;BMP_temperature;BMP_pressure;BME280_temperature;BME280_humidity;BME280_pressure;Samples;Min_cycle;Max_cycle;Signal;HPM_P1;HPM_P2
2021/06/29 00:11:36;;;;;;;14.83;13.60;;;21.40;91.30;;;;;;5140733;23;20495;-93
2021/06/29 00:15:05;;;;;;;14.37;13.30;;;22.60;92.50;;;;;;4942928;29;20440;-94
2021/06/29 00:23:22;;;;;;;13.87;13.07;;;21.30;91.30;;;;;;5585460;23;20485;-91
2021/06/29 00:25:50;;;;;;;13.50;12.60;;;23.90;96.10;;;;;;4941283;29;20434;-91
2021/06/29 00:34:44;;;;;;;14.53;13.73;;;22.70;92.50;;;;;;4978884;29;20413;-92
2021/06/29 00:37:43;;;;;;;14.90;14.00;;;21.90;92.70;;;;;;4947571;28;20473;-92
2021/06/29 00:40:26;;;;;;;14.80;13.93;;;23.00;93.90;;;;;;4909775;29;20412;-92
2021/06/29 00:48:20;;;;;;;14.43;13.53;;;20.90;92.80;;;;;;5638292;23;20494;-92
2021/06/29 00:50:47;;;;;;;14.93;14.03;;;20.10;95.50;;;;;;4944126;29;20451;-92
2021/06/29 00:53:57;;;;;;;14.40;13.60;;;23.40;96.80;;;;;;4944367;29;20206;-91
2021/06/29 00:56:57;;;;;;;13.77;12.97;;;21.00;93.20;;;;;;4957559;29;20997;-92
2021/06/29 00:59:29;;;;;;;13.37;12.60;;;24.30;96.70;;;;;;4925628;29;20437;-92
2021/06/29 01:02:43;;;;;;;13.90;13.00;;;22.40;94.70;;;;;;4958549;29;20443;-92
2021/06/29 01:05:47;;;;;;;13.87;12.83;;;22.40;93.20;;;;;;4946753;29;20423;-92
2021/06/29 01:09:18;;;;;;;15.07;14.17;;;22.10;92.80;;;;;;4937889;29;20427;-92
2021/06/29 01:12:41;;;;;;;15.13;13.97;;;22.50;92.70;;;;;;4921062;29;20445;-93
2021/06/29 01:15:43;;;;;;;15.80;14.80;;;22.40;92.00;;;;;;4887151;29;20429;-92
2021/06/29 01:18:57;;;;;;;14.23;13.23;;;21.40;92.50;;;;;;4886643;29;20500;-92
2021/06/29 01:22:24;;;;;;;14.83;13.73;;;22.00;91.70;;;;;;4903032;29;20961;-93
2021/06/29 01:25:22;;;;;;;15.10;14.20;;;21.90;92.10;;;;;;4886777;29;20464;-92
2021/06/29 01:27:57;;;;;;;14.30;13.40;;;21.60;93.10;;;;;;4886048;29;20418;-92
2021/06/29 01:31:08;;;;;;;13.70;12.90;;;21.90;92.40;;;;;;4880349;29;20652;-93
2021/06/29 01:34:41;;;;;;;13.97;13.13;;;22.50;93.20;;;;;;4883703;29;20433;-92
2021/06/29 01:37:11;;;;;;;14.27;13.27;;;21.90;93.00;;;;;;4879497;29;20510;-92
2021/06/29 01:40:14;;;;;;;16.87;15.53;;;21.00;92.00;;;;;;4852180;29;20482;-90
2021/06/29 01:42:59;;;;;;;16.50;15.50;;;21.30;94.40;;;;;;4870125;29;20434;-92
2021/06/29 01:46:07;;;;;;;18.97;17.50;;;21.00;94.40;;;;;;4883634;29;20419;-90
2021/06/29 01:51:17;;;;;;;20.63;19.13;;;20.70;94.30;;;;;;5041920;23;20478;-88
2021/06/29 01:53:46;;;;;;;21.90;20.10;;;21.70;96.50;;;;;;4973559;29;20427;-90
2021/06/29 01:56:19;;;;;;;18.60;17.20;;;22.00;96.10;;;;;;4941726;29;20459;-88
2021/06/29 01:59:02;;;;;;;15.73;14.47;;;21.10;96.30;;;;;;4957742;29;20435;-90
2021/06/29 02:01:53;;;;;;;13.30;12.40;;;20.60;95.90;;;;;;4958479;29;20389;-90
2021/06/29 02:04:24;;;;;;;11.30;10.60;;;21.40;95.80;;;;;;4958189;29;20522;-91
2021/06/29 02:06:54;;;;;;;10.67;9.93;;;19.10;96.00;;;;;;4957385;29;20447;-91
2021/06/29 02:09:21;;;;;;;11.10;9.00;;;22.50;97.70;;;;;;4957200;29;20411;-91
2021/06/29 02:11:51;;;;;;;9.77;9.10;;;20.70;94.40;;;;;;4956265;29;20450;-91
2021/06/29 02:14:17;;;;;;;9.50;9.00;;;20.70;96.20;;;;;;4955173;29;20455;-90
2021/06/29 02:16:45;;;;;;;9.30;8.70;;;20.40;98.00;;;;;;4957188;29;20466;-91
2021/06/29 02:19:16;;;;;;;8.40;7.90;;;19.80;95.40;;;;;;4940791;29;20439;-92
2021/06/29 02:21:46;;;;;;;8.03;7.50;;;21.10;97.80;;;;;;4973036;28;20534;-92
2021/06/29 02:24:13;;;;;;;8.90;8.40;;;23.30;97.10;;;;;;4956800;29;20412;-90
2021/06/29 02:27:08;;;;;;;8.27;7.87;;;19.90;96.50;;;;;;4957220;29;20422;-92
2021/06/29 02:29:56;;;;;;;9.40;8.53;;;20.00;95.50;;;;;;4957276;29;20423;-90
2021/06/29 02:32:37;;;;;;;9.10;8.40;;;20.30;97.40;;;;;;4973731;29;20415;-90
2021/06/29 02:35:08;;;;;;;8.83;8.33;;;20.50;96.00;;;;;;4959587;29;20403;-91
2021/06/29 02:37:38;;;;;;;9.03;8.57;;;20.00;96.40;;;;;;4960629;29;20479;-90
2021/06/29 02:40:07;;;;;;;8.77;8.17;;;19.70;96.60;;;;;;4958910;29;20423;-90
2021/06/29 02:42:46;;;;;;;8.50;8.10;;;19.90;97.20;;;;;;4960070;29;20439;-92
2021/06/29 02:45:20;;;;;;;9.47;8.97;;;21.40;97.10;;;;;;5206402;23;20494;-91
2021/06/29 02:47:50;;;;;;;9.27;8.60;;;18.00;96.30;;;;;;4941884;29;20514;-92
2021/06/29 02:50:17;;;;;;;10.17;9.57;;;19.90;97.30;;;;;;4942053;29;20431;-92
2021/06/29 02:52:43;;;;;;;8.90;8.37;;;21.50;98.10;;;;;;4956134;29;20423;-91
2021/06/29 02:55:15;;;;;;;9.47;8.83;;;21.90;98.90;;;;;;4957938;29;20407;-92
2021/06/29 02:57:50;;;;;;;9.50;8.90;;;20.00;97.30;;;;;;4958635;29;20474;-90
2021/06/29 03:00:45;;;;;;;11.63;10.27;;;18.60;96.00;;;;;;4960023;29;20399;-91
2021/06/29 03:03:36;;;;;;;10.93;10.23;;;19.80;96.50;;;;;;4959895;29;20416;-91
2021/06/29 03:06:05;;;;;;;9.40;8.80;;;19.30;96.90;;;;;;4959486;29;20423;-89
2021/06/29 03:08:56;;;;;;;11.73;10.87;;;21.40;99.90;;;;;;4959608;29;20459;-89
2021/06/29 03:11:22;;;;;;;10.93;9.93;;;19.10;97.20;;;;;;4943212;29;20419;-90
2021/06/29 03:13:54;;;;;;;10.73;10.03;;;19.60;98.30;;;;;;4961358;29;20478;-90
2021/06/29 03:16:23;;;;;;;9.60;9.10;;;21.10;99.50;;;;;;4962096;29;20462;-91
2021/06/29 03:18:51;;;;;;;12.90;11.90;;;18.10;98.30;;;;;;4928932;29;20431;-90
2021/06/29 03:21:23;;;;;;;10.70;9.90;;;20.80;99.90;;;;;;4943118;29;20534;-91
2021/06/29 03:23:51;;;;;;;14.40;13.27;;;21.80;99.80;;;;;;4959494;29;20403;-92
2021/06/29 03:26:21;;;;;;;12.13;11.33;;;19.70;97.40;;;;;;4941993;29;20447;-91
2021/06/29 03:28:53;;;;;;;11.30;10.60;;;20.00;97.60;;;;;;4926840;29;20419;-91
2021/06/29 03:34:24;;;;;;;11.60;10.70;;;19.60;99.10;;;;;;4959048;29;20450;-91
2021/06/29 03:37:08;;;;;;;11.33;10.63;;;20.30;99.50;;;;;;4926751;29;20451;-92
2021/06/29 03:40:00;;;;;;;11.23;10.40;;;19.70;99.10;;;;;;4945597;29;20438;-91
2021/06/29 03:42:35;;;;;;;12.40;11.47;;;19.80;99.90;;;;;;4943655;29;20461;-91
2021/06/29 03:45:10;;;;;;;12.03;10.10;;;22.20;99.90;;;;;;4941229;29;20463;-90
2021/06/29 03:47:55;;;;;;;13.80;12.47;;;20.00;98.60;;;;;;4958784;29;20455;-90
2021/06/29 03:50:24;;;;;;;12.50;11.37;;;20.00;98.80;;;;;;4940727;29;20450;-90
2021/06/29 03:52:53;;;;;;;12.50;11.50;;;20.80;99.50;;;;;;4943456;29;20439;-92
2021/06/29 03:55:29;;;;;;;11.73;11.00;;;20.10;99.90;;;;;;4928192;29;20447;-90
2021/06/29 03:57:58;;;;;;;12.53;11.73;;;20.90;99.90;;;;;;4958023;29;20466;-91
2021/06/29 04:00:28;;;;;;;11.47;10.73;;;21.10;99.50;;;;;;4958968;29;20446;-92
2021/06/29 04:03:07;;;;;;;12.13;11.43;;;19.60;98.50;;;;;;4944824;29;20480;-92
2021/06/29 04:05:37;;;;;;;11.77;11.07;;;20.70;98.90;;;;;;4926674;29;20447;-91
2021/06/29 04:08:04;;;;;;;9.83;9.10;;;20.90;99.90;;;;;;4938539;29;20402;-92
2021/06/29 04:10:43;;;;;;;10.80;10.13;;;20.00;98.90;;;;;;4959044;29;20430;-92
2021/06/29 04:13:33;;;;;;;10.40;9.70;;;21.20;98.20;;;;;;4959436;29;20415;-92
2021/06/29 04:16:02;;;;;;;9.57;9.07;;;19.40;97.00;;;;;;4947701;29;20446;-92
2021/06/29 04:18:32;;;;;;;10.10;9.50;;;20.90;97.60;;;;;;4909695;29;20447;-92
2021/06/29 04:21:09;;;;;;;10.37;9.67;;;21.70;98.90;;;;;;4957837;29;20431;-91
2021/06/29 04:23:36;;;;;;;9.63;9.10;;;20.30;97.70;;;;;;4958786;29;20450;-91
2021/06/29 04:26:05;;;;;;;9.97;9.17;;;20.20;97.80;;;;;;4959570;29;20422;-91
2021/06/29 04:28:33;;;;;;;10.03;9.27;;;20.10;96.90;;;;;;4955695;29;20420;-90
2021/06/29 04:31:13;;;;;;;10.37;9.60;;;19.60;98.70;;;;;;4956155;29;20431;-90
2021/06/29 04:33:51;;;;;;;10.50;9.60;;;22.20;96.70;;;;;;4957590;29;20434;-90
2021/06/29 04:36:24;;;;;;;9.37;8.77;;;20.70;94.80;;;;;;4942823;29;20482;-92
2021/06/29 04:38:55;;;;;;;10.13;9.43;;;20.30;94.70;;;;;;4955472;29;20427;-89
2021/06/29 04:41:27;;;;;;;9.90;9.30;;;20.70;95.40;;;;;;4939863;29;20783;-90
2021/06/29 04:43:54;;;;;;;9.53;8.93;;;23.00;97.40;;;;;;4956875;29;20423;-90
2021/06/29 04:46:39;;;;;;;8.60;8.10;;;21.00;94.50;;;;;;4954385;29;20483;-91
2021/06/29 04:49:19;;;;;;;9.10;8.57;;;19.70;93.60;;;;;;4955109;29;20415;-91
2021/06/29 04:51:45;;;;;;;8.90;8.23;;;20.40;93.60;;;;;;4925240;29;20457;-88
2021/06/29 04:54:16;;;;;;;9.27;8.73;;;20.80;96.50;;;;;;4935792;29;20503;-91
2021/06/29 04:56:58;;;;;;;8.13;7.77;;;20.40;94.10;;;;;;4927834;29;20211;-90
2021/06/29 04:59:32;;;;;;;8.30;7.90;;;20.90;93.60;;;;;;4940484;29;20520;-90
2021/06/29 05:02:03;;;;;;;7.97;7.47;;;22.30;97.80;;;;;;4257007;29;10000651;-92
2021/06/29 05:04:31;;;;;;;10.40;9.43;;;20.80;95.50;;;;;;4972638;29;20607;-90
2021/06/29 05:07:01;;;;;;;9.67;8.80;;;21.00;93.70;;;;;;4956793;29;20434;-90
2021/06/29 05:09:32;;;;;;;8.47;7.90;;;21.90;95.40;;;;;;4956266;29;20419;-90
2021/06/29 05:12:01;;;;;;;7.60;7.20;;;20.90;93.90;;;;;;4957812;29;20422;-91
2021/06/29 05:14:29;;;;;;;7.93;7.33;;;20.70;93.60;;;;;;4974642;29;20442;-88
2021/06/29 05:16:59;;;;;;;9.07;8.40;;;21.40;95.40;;;;;;4956005;29;20486;-90
2021/06/29 05:19:30;;;;;;;7.70;7.30;;;21.20;92.70;;;;;;4970828;29;20490;-90
2021/06/29 05:21:59;;;;;;;7.90;7.40;;;23.70;97.90;;;;;;4920313;29;20442;-90
2021/06/29 05:24:26;;;;;;;10.77;7.03;;;19.30;94.10;;;;;;4952346;29;20411;-93
2021/06/29 05:26:53;;;;;;;8.50;8.00;;;23.10;95.50;;;;;;4935911;29;20459;-88
2021/06/29 05:29:18;;;;;;;9.03;8.53;;;22.80;95.70;;;;;;4935784;29;20432;-89
2021/06/29 05:31:48;;;;;;;9.10;8.60;;;21.20;93.50;;;;;;4953699;29;20459;-92
2021/06/29 05:34:23;;;;;;;10.63;9.53;;;22.50;94.90;;;;;;4919856;29;20419;-89
2021/06/29 05:36:50;;;;;;;9.27;8.80;;;22.50;92.70;;;;;;4921476;29;20605;-90
2021/06/29 05:39:17;;;;;;;9.57;8.80;;;20.70;90.60;;;;;;4952241;29;20412;-92
2021/06/29 05:41:45;;;;;;;9.40;8.83;;;23.40;94.70;;;;;;4931711;29;20427;-91
2021/06/29 05:44:11;;;;;;;8.90;8.40;;;20.20;92.30;;;;;;4918815;29;20879;-90
2021/06/29 05:46:47;;;;;;;10.30;9.67;;;22.70;91.50;;;;;;4929033;29;20547;-91
2021/06/29 05:49:43;;;;;;;11.37;10.57;;;21.40;89.00;;;;;;4931218;29;20449;-94
2021/06/29 05:52:09;;;;;;;8.23;7.83;;;22.00;90.50;;;;;;4913954;29;20420;-89
2021/06/29 05:54:34;;;;;;;8.67;8.27;;;21.80;90.80;;;;;;4945678;29;20491;-88
2021/06/29 05:57:00;;;;;;;9.13;8.53;;;22.90;91.00;;;;;;4930472;29;20207;-92
2021/06/29 05:59:28;;;;;;;9.40;8.80;;;21.80;90.90;;;;;;4933391;29;20187;-87
2021/06/29 06:02:00;;;;;;;8.43;7.97;;;22.20;86.90;;;;;;4942408;29;20235;-92
2021/06/29 06:04:35;;;;;;;9.60;8.90;;;22.00;87.10;;;;;;4948030;29;20431;-92
2021/06/29 06:07:04;;;;;;;10.23;9.63;;;23.70;84.20;;;;;;4950441;29;20910;-91
2021/06/29 06:09:33;;;;;;;9.90;9.20;;;24.70;87.80;;;;;;4964281;29;20403;-92
2021/06/29 06:12:05;;;;;;;9.87;9.27;;;26.50;84.90;;;;;;4949595;29;20440;-92
2021/06/29 06:14:38;;;;;;;10.53;9.73;;;24.70;80.20;;;;;;4950928;29;20447;-92
2021/06/29 06:17:04;;;;;;;10.77;9.80;;;23.60;74.80;;;;;;4950603;29;20478;-89
2021/06/29 06:19:30;;;;;;;13.57;12.33;;;24.10;74.30;;;;;;4958576;28;20431;-92
2021/06/29 06:21:55;;;;;;;15.27;14.17;;;22.30;72.90;;;;;;4965574;29;20498;-92
2021/06/29 06:24:37;;;;;;;16.00;14.80;;;25.90;78.70;;;;;;4952055;29;20231;-92
2021/06/29 06:27:30;;;;;;;17.10;15.67;;;25.70;82.70;;;;;;4969632;29;20171;-92
2021/06/29 06:30:00;;;;;;;18.37;16.87;;;22.20;73.60;;;;;;4949629;29;20407;-89
2021/06/29 06:32:27;;;;;;;19.53;18.07;;;23.00;82.90;;;;;;4949400;29;20426;-88
2021/06/29 06:35:05;;;;;;;22.10;20.10;;;21.60;77.00;;;;;;4935654;29;20523;-91
2021/06/29 06:37:44;;;;;;;17.43;16.00;;;23.10;76.60;;;;;;4953853;29;20477;-90
2021/06/29 06:40:37;;;;;;;14.63;13.30;;;24.50;79.60;;;;;;4952287;29;20427;-90
2021/06/29 06:43:05;;;;;;;14.13;13.00;;;23.10;77.80;;;;;;4953257;29;20399;-89
2021/06/29 06:45:31;;;;;;;12.83;11.93;;;22.10;83.70;;;;;;4964977;28;20435;-90
2021/06/29 06:47:58;;;;;;;11.90;10.80;;;21.30;88.80;;;;;;4952108;29;20466;-92
2021/06/29 06:50:27;;;;;;;11.27;10.57;;;23.70;89.60;;;;;;4972820;29;20172;-91
2021/06/29 06:52:55;;;;;;;12.10;11.27;;;21.70;83.10;;;;;;4954377;29;20424;-92
2021/06/29 06:55:29;;;;;;;12.37;11.43;;;25.00;90.20;;;;;;4966374;29;20447;-93
2021/06/29 06:57:58;;;;;;;11.27;10.43;;;21.60;78.70;;;;;;4948093;29;20471;-93
2021/06/29 07:00:36;;;;;;;12.00;11.20;;;22.70;78.20;;;;;;4953013;29;20422;-91
2021/06/29 07:03:05;;;;;;;11.33;10.53;;;24.30;80.20;;;;;;4969426;29;20430;-91
2021/06/29 07:05:36;;;;;;;10.20;9.60;;;23.00;77.00;;;;;;4971167;29;20419;-90
2021/06/29 07:08:12;;;;;;;9.00;8.60;;;24.30;79.30;;;;;;4971230;28;20435;-93
2021/06/29 07:10:43;;;;;;;9.70;8.70;;;23.80;74.40;;;;;;4951245;29;20458;-92
2021/06/29 07:13:17;;;;;;;8.33;7.83;;;23.70;72.30;;;;;;4929493;29;20464;-90
2021/06/29 07:15:42;;;;;;;6.50;6.00;;;26.00;75.90;;;;;;4916515;29;20437;-90
2021/06/29 07:18:18;;;;;;;5.37;5.17;;;25.60;77.20;;;;;;4912635;29;20491;-93
2021/06/29 07:20:46;;;;;;;5.77;5.60;;;25.60;70.10;;;;;;4927582;29;20172;-91
2021/06/29 07:23:19;;;;;;;5.40;5.20;;;27.40;72.90;;;;;;4933576;29;20530;-91
2021/06/29 07:25:54;;;;;;;5.20;4.90;;;25.40;71.80;;;;;;4918836;29;20550;-92
2021/06/29 07:28:20;;;;;;;5.57;5.37;;;23.40;77.40;;;;;;4935829;29;20462;-86
2021/06/29 07:30:45;;;;;;;5.30;4.80;;;23.00;75.60;;;;;;4914438;29;20507;-87
2021/06/29 07:33:11;;;;;;;5.83;5.57;;;22.30;73.70;;;;;;4908116;29;20197;-88
2021/06/29 07:35:37;;;;;;;6.17;5.60;;;25.10;76.80;;;;;;4909158;29;20249;-88
2021/06/29 07:38:09;;;;;;;5.50;5.30;;;23.20;75.90;;;;;;4915221;29;20272;-87
2021/06/29 07:40:39;;;;;;;5.30;5.10;;;23.00;72.40;;;;;;4913330;29;20441;-89
2021/06/29 07:43:05;;;;;;;5.33;5.13;;;23.50;77.20;;;;;;4912827;29;20457;-88
2021/06/29 07:45:34;;;;;;;4.90;4.80;;;23.40;73.70;;;;;;4918797;29;20413;-90
2021/06/29 07:48:07;;;;;;;5.40;5.03;;;23.00;71.70;;;;;;4927504;29;20555;-90
2021/06/29 07:50:51;;;;;;;5.95;5.55;;;23.30;70.60;;;;;;4723725;29;10000834;-90
2021/06/29 07:54:12;;;;;;;5.87;5.43;;;23.30;72.40;;;;;;4938690;29;20458;-89
2021/06/29 07:56:42;;;;;;;9.20;6.97;;;25.70;73.40;;;;;;4936097;29;20451;-88
2021/06/29 07:59:07;;;;;;;6.97;6.57;;;25.00;73.70;;;;;;4952143;29;20450;-90
2021/06/29 08:01:33;;;;;;;7.80;6.43;;;24.70;74.80;;;;;;4938868;29;20415;-93
2021/06/29 08:04:05;;;;;;;6.90;6.60;;;23.50;76.30;;;;;;4940509;29;20316;-89
2021/06/29 08:06:48;;;;;;;7.67;7.27;;;27.10;79.20;;;;;;4955730;29;20263;-89
2021/06/29 08:09:15;;;;;;;7.30;6.80;;;26.30;70.90;;;;;;4953238;29;20422;-89
2021/06/29 08:11:54;;;;;;;8.63;8.23;;;24.10;67.40;;;;;;4939532;29;20214;-90
2021/06/29 08:14:56;;;;;;;8.43;8.10;;;24.90;72.30;;;;;;4957885;29;20407;-90
2021/06/29 08:17:30;;;;;;;7.50;7.10;;;24.60;68.20;;;;;;4940830;29;20486;-89
2021/06/29 08:19:57;;;;;;;8.60;8.20;;;24.20;67.20;;;;;;4933029;29;20482;-91
2021/06/29 08:22:23;;;;;;;11.17;10.27;;;24.30;65.90;;;;;;4938633;29;20415;-89
2021/06/29 08:24:58;;;;;;;15.07;13.67;;;24.50;72.80;;;;;;4940801;29;20537;-92
2021/06/29 08:27:39;;;;;;;13.17;12.37;;;26.00;73.90;;;;;;5030529;23;20482;-91
2021/06/29 08:30:12;;;;;;;16.53;15.13;;;25.20;71.90;;;;;;4987387;28;20431;-90
2021/06/29 08:32:38;;;;;;;17.40;15.87;;;24.10;67.90;;;;;;4954876;29;20447;-90
2021/06/29 08:35:09;;;;;;;17.60;16.10;;;26.20;70.50;;;;;;4949896;29;20507;-91
2021/06/29 08:37:48;;;;;;;14.53;13.63;;;24.10;67.70;;;;;;4951723;29;20475;-91
2021/06/29 08:40:37;;;;;;;16.97;14.47;;;24.30;69.80;;;;;;4948985;29;20419;-89
2021/06/29 08:43:11;;;;;;;15.20;14.03;;;23.70;67.60;;;;;;4966753;28;20432;-90
2021/06/29 08:45:44;;;;;;;14.43;13.07;;;22.90;67.70;;;;;;4967199;28;20426;-90
2021/06/29 08:48:11;;;;;;;15.30;14.20;;;23.60;68.30;;;;;;4947640;29;20430;-90
2021/06/29 08:50:43;;;;;;;15.30;14.20;;;23.60;72.40;;;;;;4949934;29;20471;-91
2021/06/29 08:53:17;;;;;;;13.23;12.30;;;23.50;73.80;;;;;;4947186;29;20454;-92
2021/06/29 08:55:49;;;;;;;14.57;13.43;;;23.50;72.80;;;;;;4963131;28;20415;-91
2021/06/29 08:58:20;;;;;;;15.30;14.00;;;24.00;71.90;;;;;;4951468;29;20589;-90
2021/06/29 09:00:59;;;;;;;14.60;13.60;;;24.40;70.50;;;;;;4949636;29;20404;-90
2021/06/29 09:03:37;;;;;;;15.57;14.20;;;23.40;68.30;;;;;;4965962;28;20502;-90
2021/06/29 09:06:05;;;;;;;16.63;15.43;;;24.80;76.10;;;;;;4954681;28;20457;-91
2021/06/29 09:08:37;;;;;;;15.60;14.40;;;23.20;73.80;;;;;;4953373;28;20427;-89
2021/06/29 09:11:15;;;;;;;14.70;13.70;;;22.20;73.00;;;;;;4953067;28;20907;-88
2021/06/29 09:14:06;;;;;;;28.47;25.90;;;23.30;74.90;;;;;;4936170;29;20450;-90
2021/06/29 09:16:32;;;;;;;26.83;24.03;;;24.70;73.60;;;;;;4924756;29;20546;-89
2021/06/29 09:18:57;;;;;;;38.00;34.20;;;23.90;72.90;;;;;;4939797;29;20455;-89
2021/06/29 09:21:24;;;;;;;33.87;30.60;;;23.90;73.50;;;;;;4959151;28;20175;-90
2021/06/29 09:23:53;;;;;;;29.20;26.30;;;24.30;71.90;;;;;;4956188;28;20273;-90
2021/06/29 09:26:23;;;;;;;30.43;27.53;;;26.70;68.90;;;;;;4968835;28;20406;-90
2021/06/29 09:29:16;;;;;;;28.33;25.83;;;25.00;64.20;;;;;;4998153;23;20501;-92
2021/06/29 09:31:43;;;;;;;32.30;29.30;;;26.10;60.80;;;;;;4934134;29;20430;-92
2021/06/29 09:34:18;;;;;;;32.13;29.27;;;26.80;64.30;;;;;;4950311;29;20407;-94
2021/06/29 09:36:50;;;;;;;27.23;24.83;;;25.80;58.90;;;;;;4951625;28;20472;-90
2021/06/29 09:39:32;;;;;;;;;;;;;;;;;;;;;
2021/06/29 09:42:07;;;;;;;28.30;25.80;;;26.40;55.90;;;;;;4951139;29;20442;-90
2021/06/29 09:44:38;;;;;;;25.27;23.13;;;27.80;54.90;;;;;;4934119;29;20462;-88
2021/06/29 09:47:23;;;;;;;22.13;20.27;;;29.70;53.80;;;;;;4948067;29;20415;-90
2021/06/29 09:49:49;;;;;;;24.23;22.33;;;29.40;51.60;;;;;;4944405;29;20419;-91
2021/06/29 09:52:14;;;;;;;24.90;22.90;;;30.40;49.40;;;;;;4927729;29;20876;-90
2021/06/29 09:54:42;;;;;;;26.17;24.23;;;30.80;48.80;;;;;;4943293;29;20726;-88
2021/06/29 09:57:28;;;;;;;26.23;24.20;;;31.90;49.40;;;;;;4943894;29;20207;-89
2021/06/29 09:59:54;;;;;;;28.30;26.03;;;29.50;49.00;;;;;;4937954;28;21096;-89
2021/06/29 10:02:30;;;;;;;27.50;24.97;;;30.40;52.00;;;;;;4925642;29;20424;-86
2021/06/29 10:05:37;;;;;;;27.60;25.30;;;28.10;53.30;;;;;;4923406;29;20190;-88
2021/06/29 10:08:12;;;;;;;27.30;24.90;;;27.30;51.10;;;;;;4595288;29;9999609;-89
2021/06/29 10:10:40;;;;;;;29.80;27.40;;;29.10;51.00;;;;;;4922048;29;20416;-90
2021/06/29 10:13:20;;;;;;;29.17;26.47;;;28.80;51.30;;;;;;4927848;29;20447;-91
2021/06/29 10:15:52;;;;;;;26.93;24.83;;;28.30;50.80;;;;;;4925044;29;20428;-91
2021/06/29 10:18:52;;;;;;;27.23;25.03;;;29.00;52.40;;;;;;4926627;29;20597;-90
2021/06/29 10:21:31;;;;;;;28.70;26.40;;;29.90;52.00;;;;;;4926359;29;20443;-88
2021/06/29 10:24:06;;;;;;;24.77;22.33;;;28.00;52.00;;;;;;4929434;29;20900;-91
2021/06/29 10:26:51;;;;;;;24.27;21.80;;;28.00;52.60;;;;;;4932696;29;20434;-90
2021/06/29 10:29:20;;;;;;;25.27;23.10;;;26.10;51.30;;;;;;4913671;29;20471;-91
2021/06/29 10:32:07;;;;;;;24.43;22.37;;;26.90;53.00;;;;;;4944492;29;20428;-87
2021/06/29 10:34:46;;;;;;;23.77;21.70;;;27.20;54.10;;;;;;4929293;29;20454;-88
2021/06/29 10:37:15;;;;;;;29.00;26.40;;;28.40;54.60;;;;;;4927804;29;20503;-88
2021/06/29 10:39:44;;;;;;;30.00;27.60;;;27.60;54.30;;;;;;4928586;29;20424;-89
2021/06/29 10:42:22;;;;;;;27.27;24.87;;;30.20;53.30;;;;;;4929311;29;20503;-90
2021/06/29 10:45:10;;;;;;;28.17;25.57;;;27.40;52.50;;;;;;4930927;29;20420;-88
2021/06/29 10:47:45;;;;;;;32.17;29.17;;;28.20;52.90;;;;;;4929846;29;20511;-90
2021/06/29 10:50:16;;;;;;;30.10;27.53;;;28.50;51.90;;;;;;4938678;29;20722;-90
2021/06/29 10:52:45;;;;;;;29.57;27.03;;;28.30;50.90;;;;;;4936903;29;20447;-91
2021/06/29 10:55:28;;;;;;;25.90;23.70;;;28.90;50.20;;;;;;4935359;29;20423;-90
2021/06/29 10:58:34;;;;;;;28.60;26.00;;;29.90;50.20;;;;;;4932810;29;20467;-91
2021/06/29 11:01:48;;;;;;;29.67;27.00;;;29.30;49.10;;;;;;4950559;29;20447;-92
2021/06/29 11:04:53;;;;;;;26.03;23.90;;;28.70;49.20;;;;;;4937768;29;20433;-90
2021/06/29 11:07:45;;;;;;;25.70;23.80;;;30.40;47.80;;;;;;4931257;29;20400;-94
2021/06/29 11:10:30;;;;;;;27.20;25.10;;;30.90;45.80;;;;;;4931270;29;20408;-87
2021/06/29 11:13:12;;;;;;;;;;;;;;;;;;;;;
2021/06/29 11:15:45;;;;;;;27.90;25.63;;;31.50;47.20;;;;;;4929549;29;20515;-91
2021/06/29 11:18:21;;;;;;;29.73;27.00;;;28.50;47.50;;;;;;4929351;29;20491;-91
2021/06/29 11:21:06;;;;;;;28.17;25.67;;;29.40;50.20;;;;;;4932484;29;20507;-91
2021/06/29 11:23:44;;;;;;;23.83;22.03;;;27.50;51.20;;;;;;4933924;29;20491;-94
2021/06/29 11:26:18;;;;;;;21.63;19.93;;;29.70;49.90;;;;;;4918683;29;20423;-93
2021/06/29 11:29:04;;;;;;;23.77;21.77;;;28.00;49.60;;;;;;4930569;29;20439;-90
2021/06/29 11:32:24;;;;;;;21.90;19.90;;;28.30;49.00;;;;;;4932002;29;20446;-89
2021/06/29 11:35:15;;;;;;;20.00;18.40;;;29.10;49.00;;;;;;4924119;29;20416;-93
2021/06/29 11:38:23;;;;;;;18.43;17.03;;;32.00;45.40;;;;;;4940034;29;20478;-92
2021/06/29 11:40:55;;;;;;;17.60;16.27;;;31.70;43.10;;;;;;4933190;29;20519;-90
2021/06/29 11:43:45;;;;;;;18.53;17.00;;;31.30;43.80;;;;;;4934620;29;20439;-91
2021/06/29 11:46:52;;;;;;;18.00;16.60;;;32.80;45.20;;;;;;4933535;29;20456;-90
2021/06/29 11:49:40;;;;;;;21.27;19.43;;;29.70;43.80;;;;;;4932466;29;20423;-92
2021/06/29 11:52:26;;;;;;;15.27;14.23;;;30.40;44.40;;;;;;4947798;29;20475;-90
2021/06/29 11:55:16;;;;;;;16.20;15.00;;;30.40;44.50;;;;;;4948052;29;20432;-91
2021/06/29 11:57:54;;;;;;;15.77;14.67;;;29.80;44.70;;;;;;4949936;29;20491;-94
2021/06/29 12:00:31;;;;;;;17.33;15.80;;;29.40;44.60;;;;;;4930475;29;20463;-92
2021/06/29 12:03:30;;;;;;;16.17;14.97;;;29.50;44.70;;;;;;4953357;29;20426;-93
2021/06/29 12:06:35;;;;;;;15.17;14.13;;;30.80;43.70;;;;;;4951593;29;20595;-91
2021/06/29 12:09:34;;;;;;;17.53;16.00;;;32.90;41.90;;;;;;4951834;29;20435;-92
2021/06/29 12:12:31;;;;;;;17.77;16.43;;;33.60;40.50;;;;;;4947166;29;20408;-92
2021/06/29 12:15:15;;;;;;;15.93;14.83;;;33.20;39.40;;;;;;4933259;29;20523;-93
2021/06/29 12:19:10;;;;;;;17.70;16.30;;;35.50;40.30;;;;;;4916274;29;20554;-93
2021/06/29 12:21:39;;;;;;;15.40;14.30;;;33.60;39.50;;;;;;4923603;29;20427;-90
2021/06/29 12:24:46;;;;;;;14.37;13.47;;;33.70;39.40;;;;;;4932000;29;20494;-95
2021/06/29 12:30:51;;;;;;;;;;;;;;;;;;;;;
2021/06/29 12:33:43;;;;;;;14.57;13.60;;;32.50;39.40;;;;;;4873452;29;20442;-91
2021/06/29 12:40:08;;;;;;;;;;;;;;;;;;;;;
2021/06/29 12:42:59;;;;;;;14.73;13.30;;;34.70;37.70;;;;;;4867812;29;20459;-93
2021/06/29 12:45:50;;;;;;;13.83;13.03;;;35.50;36.30;;;;;;4858049;29;20419;-93
2021/06/29 12:49:03;;;;;;;15.00;13.80;;;35.40;37.40;;;;;;4852475;29;20427;-92
2021/06/29 12:51:56;;;;;;;16.10;14.50;;;34.80;36.90;;;;;;4871498;29;20423;-90
2021/06/29 12:54:35;;;;;;;;;;;;;;;;;;;;;
2021/06/29 12:57:30;;;;;;;13.67;12.87;;;33.70;38.50;;;;;;4936565;29;20475;-94
2021/06/29 13:00:09;;;;;;;12.70;11.87;;;34.70;37.00;;;;;;4936974;29;20480;-90
2021/06/29 13:02:55;;;;;;;12.30;11.50;;;35.10;36.90;;;;;;4932324;29;20443;-93
2021/06/29 13:06:06;;;;;;;14.07;13.17;;;36.00;35.40;;;;;;4910738;29;20503;-91
2021/06/29 13:08:36;;;;;;;;;;;;;;;;;;;;;
2021/06/29 13:11:24;;;;;;;11.67;10.90;;;33.80;38.60;;;;;;4932350;29;20497;-93
2021/06/29 13:14:24;;;;;;;;;;;;;;;;;;;;;
2021/06/29 13:17:27;;;;;;;;;;;;;;;;;;;;;
2021/06/29 13:20:14;;;;;;;13.10;12.10;;;32.00;40.60;;;;;;4931192;29;20459;-93
2021/06/29 13:22:53;;;;;;;11.07;10.37;;;32.20;38.70;;;;;;4912796;29;20435;-94
2021/06/29 13:25:51;;;;;;;8.90;8.50;;;33.70;37.60;;;;;;4931106;29;20467;-88
2021/06/29 13:28:20;;;;;;;8.67;8.07;;;34.30;35.90;;;;;;4932649;29;20400;-90
2021/06/29 13:31:17;;;;;;;8.73;8.27;;;33.30;36.70;;;;;;4928209;29;20605;-91
2021/06/29 13:36:26;;;;;;;8.17;7.77;;;34.60;35.30;;;;;;4946416;29;20498;-89
2021/06/29 13:38:58;;;;;;;8.50;7.90;;;34.60;34.90;;;;;;4918272;29;20449;-88
2021/06/29 13:41:32;;;;;;;7.80;7.27;;;34.40;35.30;;;;;;4919800;29;20518;-86
2021/06/29 13:44:14;;;;;;;7.37;7.10;;;34.60;34.90;;;;;;4936626;29;20458;-87
2021/06/29 13:46:41;;;;;;;7.67;7.37;;;35.00;34.20;;;;;;4936202;29;20417;-90
2021/06/29 13:49:37;;;;;;;7.63;7.23;;;35.80;34.30;;;;;;4920994;29;20926;-89
2021/06/29 13:52:11;;;;;;;8.40;7.70;;;35.30;34.00;;;;;;4933054;29;20478;-92
2021/06/29 13:54:42;;;;;;;8.63;8.00;;;34.60;34.70;;;;;;4931097;29;20438;-92
2021/06/29 13:57:38;;;;;;;9.57;8.87;;;34.20;35.60;;;;;;4930784;29;20446;-93
2021/06/29 14:00:26;;;;;;;11.20;10.40;;;34.10;35.20;;;;;;4918232;29;20983;-88
2021/06/29 14:03:40;;;;;;;20.17;18.37;;;35.00;34.80;;;;;;4936847;29;20450;-88
2021/06/29 14:06:04;;;;;;;6.70;6.40;;;35.90;33.60;;;;;;4933288;29;20419;-87
2021/06/29 14:08:32;;;;;;;10.80;10.10;;;35.80;32.30;;;;;;4938917;29;20490;-89
2021/06/29 14:11:00;;;;;;;8.60;8.20;;;35.10;32.90;;;;;;4924147;29;20458;-87
2021/06/29 14:13:57;;;;;;;9.03;8.63;;;34.70;33.50;;;;;;4944252;29;20443;-88
2021/06/29 14:16:29;;;;;;;8.07;7.77;;;34.50;35.00;;;;;;4932944;29;20424;-91
2021/06/29 14:18:58;;;;;;;8.10;7.70;;;34.40;34.90;;;;;;4942746;29;20459;-91
2021/06/29 14:21:37;;;;;;;9.50;9.00;;;33.60;35.10;;;;;;4936050;29;20426;-91
2021/06/29 14:24:10;;;;;;;8.60;8.20;;;34.10;35.60;;;;;;4935668;29;20431;-91
2021/06/29 14:26:41;;;;;;;7.30;7.10;;;33.40;35.50;;;;;;4933902;29;20485;-87